Terminal Aerodrome Forecast
Issued by NWS

Home | Current Version | Previous Version | Text Only | Print | Product List | Glossary On
Versions: 1 2 3 4 5 6 7 8 9 10 11 12
000
FTUS45 KMSO 300500
TAFSMN
TAF
KSMN 300520Z 3006/3106 VRB03KT P6SM SCT150
     FM302100 16007KT P6SM VCTS BKN120CB
     FM310000 13010G20KT P6SM VCTS BKN090CB
     FM310200 VRB06KT P6SM SCT150
      AMD LTD TO CLD VIS AND WIND=

USA.gov is the U.S. government's official web portal to all federal, state and local government web resources and services.